Ship Status Report: callsign BATFR54

sailwx.info

Track history (hours):
 
Tides and Currents Weather Stations Pressure Air Temp Water Temp Dewpoint Dewpoint Depression Visibility Wind Speed Wind Dir Waves Ship Positions

Callsign BATFR54 (name unknown)

Last reported at 2015-Mar-31 14:00 UTC. Time now 2015-Mar-31 15:29 UTC.
Position N 53°42' W 004°12'.

Wind from 280 at 40 knots

Barometer 1009.8 mb
Air temperature 7.4 ° C
Dewpoint -0.3 ° C
Water temperature 7.2 ° C

Date/timePositionNaut miles runAvg speedWind from/ knotsBaromVisibWave heightAir tempDewpointWater temp
2015-Mar-31 14:00N 53°42' W 004°12'7 7.0 280 / 401009.8 7.4-0.3 7.2
2015-Mar-31 13:00N 53°36' W 004°06'7 7.0 280 / 461008.2 7.4 0.7 6.9
2015-Mar-31 12:00N 53°30' W 004°00'4 3.6 270 / 341007.6 6.7 2.2 6.9
2015-Mar-31 11:00N 53°30' W 004°06'18 8.9 280 / 331009.2 6.2 2.2 7.0
2015-Mar-31 09:00N 53°30' W 004°36'16 8.0 280 / 341006.6 7.4 2.5 6.9
2015-Mar-31 07:00N 53°18' W 004°54'19 9.7 250 / 171005.1 7.4 2.7 7.4
2015-Mar-31 05:00N 53°00' W 005°06'7 7.0 280 / 211001.4 8.4 4.2 7.9
2015-Mar-31 04:00N 52°54' W 005°12'1212.0 250 / 231000.8 8.9 5.2 7.9
2015-Mar-31 03:00N 52°42' W 005°12'7 7.0 250 / 321000.1 8.9 4.5 7.9
2015-Mar-31 02:00N 52°36' W 005°18'7 7.0 260 / 31999.8 9.7 4.0 8.0
2015-Mar-31 01:00N 52°30' W 005°24'7 7.0 260 / 27999.4 9.9 4.2 8.0
2015-Mar-31 00:00N 52°24' W 005°30'6 6.0 260 / 22998.4 10.2 6.0 8.0
2015-Mar-30 23:00N 52°18' W 005°30'1312.6 240 / 41997.5 10.5 7.7 8.2
2015-Mar-30 22:00N 52°06' W 005°36'7 7.0 240 / 43998.5 10.2 8.9 8.2
2015-Mar-30 21:00N 52°00' W 005°42'6 6.0 240 / 42999.9 10.2 9.0 8.2
2015-Mar-30 20:00N 51°54' W 005°42'18 9.2 240 / 391001.7 10.2 9.2 8.2
2015-Mar-30 18:00N 51°36' W 005°48'7 7.1 250 / 431002.3 10.5 9.4 8.4
2015-Mar-30 17:00N 51°30' W 005°42'15 7.5 240 / 411004.1 10.4 9.5 8.2
2015-Mar-30 15:00N 51°30' W 005°18'7 7.5 200 / 281005.9 8.9 8.4 8.2
2015-Mar-30 14:00N 51°30' W 005°06'7 7.5 210 / 241008.7 8.7 7.4 8.2
2015-Mar-30 13:00N 51°30' W 004°54'16 8.1 220 / 211011.2 8.7 6.5 7.9
2015-Mar-30 11:00N 51°24' W 004°30'7 7.5 240 / 171013.2 8.9 4.7 7.9
2015-Mar-30 10:00N 51°24' W 004°18'7 7.5 260 / 161013.6 8.7 4.2 7.7
2015-Mar-30 09:00N 51°24' W 004°06'1111.2 270 / 191013.2 8.5 3.9 7.9
2015-Mar-30 08:00N 51°24' W 003°48'7 7.5 280 / 241012.0 8.4 2.4 7.7
2015-Mar-30 07:00N 51°24' W 003°36'2211.2 290 / 321011.7 8.2 2.7 7.7
2015-Mar-30 05:00N 51°24' W 003°00'10 1.6 270 / 191008.0 7.4 2.9 7.7
2015-Mar-29 23:00N 51°30' W 002°48'1616.1 260 / 171004.1 8.7 5.4 8.0
2015-Mar-29 22:00N 51°24' W 003°12'2613.1 280 / 241003.4 8.7 6.7 7.7
2015-Mar-29 20:00N 51°24' W 003°54'1111.2 250 / 221003.6 8.9 6.9 7.9
2015-Mar-29 19:00N 51°24' W 004°12'34 5.7 260 / 191003.4 9.2 6.4 7.9
2015-Mar-29 13:00N 51°18' W 003°18'10 9.6 260 / 51995.7 10.7 8.2 7.7
2015-Mar-29 12:00N 51°24' W 003°06'10 9.6 250 / 50996.0 11.0 8.4 7.7
2015-Mar-29 11:00N 51°30' W 002°54'2914.4 240 / 45996.9 10.4 8.7 7.7
2015-Mar-29 09:00N 51°18' W 003°36'1918.8 240 / 39999.8 10.4 8.9 7.7
2015-Mar-29 08:00N 51°18' W 004°06'0 0.0 240 / 351001.2 9.9 8.9 7.9
2015-Mar-29 07:00N 51°18' W 004°06'0 0.0 240 / 451000.7 10.7 8.7 7.9
2015-Mar-29 06:00N 51°18' W 004°06'1111.3 240 / 321003.3 9.7 9.0 7.9
2015-Mar-29 05:00N 51°18' W 004°24'7 7.1 240 / 361003.0 9.9 9.0 8.0
2015-Mar-29 04:00N 51°12' W 004°30'1616.5 240 / 301004.8 9.9 9.2 8.4
2015-Mar-29 03:00N 51°00' W 004°48'1312.8 240 / 271006.5 9.9 9.4 8.5
2015-Mar-29 02:00N 50°54' W 005°06'3115.3 250 / 261008.6 9.9 9.2 9.2
2015-Mar-29 00:00N 50°30' W 005°36'10 9.7 250 / 321010.8 10.2 8.9 9.2
2015-Mar-28 23:00N 50°24' W 005°48'1312.6 240 / 301012.1 10.2 8.9 9.4
2015-Mar-28 22:00N 50°12' W 005°54'1312.6 230 / 231013.0 10.4 8.4 9.4
2015-Mar-28 21:00N 50°00' W 005°48'1211.6 250 / 301013.2 10.4 8.2 9.4
2015-Mar-28 20:00N 50°00' W 005°30'10 9.8 260 / 301013.7 10.4 8.4 9.5
2015-Mar-28 19:00N 49°54' W 005°18'1211.6 260 / 321013.6 10.7 8.4 9.4
2015-Mar-28 18:00N 49°54' W 005°00'19 9.7 260 / 311013.3 10.9 8.9 9.5
2015-Mar-28 16:00N 49°54' W 004°30'54 7.8 250 / 341012.5 11.0 9.5 9.5
2015-Mar-28 09:00N 50°00' W 003°06'8 7.7 230 / 361015.8 10.4 9.2 8.9
2015-Mar-28 08:00N 50°00' W 002°54'1313.0 240 / 301016.4 10.2 9.5 9.0
2015-Mar-28 07:00N 50°06' W 002°36'1211.5 240 / 261016.9 10.0 9.7 8.9
2015-Mar-28 06:00N 50°06' W 002°18'1211.5 240 / 301016.9 9.9 9.5 9.0
2015-Mar-28 05:00N 50°06' W 002°00'10 9.8 250 / 251017.5 9.9 9.4 9.0
2015-Mar-28 04:00N 50°12' W 001°48'35 8.8 250 / 281017.3 9.7 9.5 9.0
2015-Mar-28 00:00N 50°18' W 000°54'1313.0 160 / 131019.7 8.5 7.9 8.4
2015-Mar-27 23:00N 50°24' W 000°36'1111.5 150 / 121020.8 8.4 7.4 8.4
2015-Mar-27 22:00N 50°24' W 000°18'1312.9 200 / 151021.5 8.9 6.4 8.7
2015-Mar-27 21:00N 50°30' E 000°00'1111.4 190 / 141021.8 8.7 6.4 8.7
2015-Mar-27 20:00N 50°30' E 000°18'2311.3 210 / 141021.9 8.7 6.9 8.4
2015-Mar-27 18:00N 50°42' E 000°48'1312.9 220 / 181021.6 8.5 6.5 8.2
2015-Mar-27 17:00N 50°48' E 001°06'10 9.7 210 / 191021.1 8.5 6.2 8.0
2015-Mar-27 16:00N 50°54' E 001°18'2613.0 220 / 181021.4 8.4 5.2 8.0
2015-Mar-27 14:00N 51°12' E 001°48'1414.2 190 / 71021.6 8.4 2.4 7.9
2015-Mar-27 13:00N 51°24' E 002°00'1414.1 260 / 121021.2 7.4 2.4 7.7
2015-Mar-27 12:00N 51°36' E 002°12'1414.1 250 / 151019.8 7.0 2.4 7.7
2015-Mar-27 11:00N 51°48' E 002°24'10 9.5 280 / 171019.5 7.2 1.9 7.5
2015-Mar-27 10:00N 51°54' E 002°36'2311.6 290 / 211018.5 6.9 1.9 7.4
2015-Mar-27 08:00N 52°12' E 003°00'1414.1 290 / 281015.9 6.0 2.4 6.9
2015-Mar-27 07:00N 52°24' E 003°12'7 7.0 290 / 271014.8 6.7 3.2 6.9
2015-Mar-27 06:00N 52°30' E 003°18'9 9.4 300 / 321013.0 6.7 2.4 7.0
2015-Mar-27 05:00N 52°36' E 003°30'1414.0 300 / 331011.3 6.9 3.7 7.0
2015-Mar-27 04:00N 52°48' E 003°42'48 9.7 290 / 331009.4 6.7 3.7 6.9
2015-Mar-26 23:00N 53°24' E 004°36'9 9.3 270 / 291003.4 6.7 4.2 6.5
2015-Mar-26 22:00N 53°30' E 004°48'1212.3 270 / 311002.5 6.4 3.9 6.4
2015-Mar-26 21:00N 53°36' E 005°06'7 7.1 270 / 271001.8 6.4 4.5 6.4
2015-Mar-26 20:00N 53°36' E 005°18'1212.2 220 / 211001.4 6.7 5.2 6.4
2015-Mar-26 19:00N 53°42' E 005°36'1515.4 170 / 251000.5 5.0 3.7 6.4
2015-Mar-26 18:00N 53°48' E 006°00'1110.6 170 / 261001.4 4.7 2.7 6.2
2015-Mar-26 17:00N 53°48' E 006°18'1515.4 130 / 151002.3 4.7 2.0 6.0
2015-Mar-26 16:00N 53°54' E 006°42'1110.6 190 / 231003.4 4.7 1.7 5.9
2015-Mar-26 15:00N 53°54' E 007°00'1212.2 170 / 141003.7 6.4 2.0 5.7
2015-Mar-26 14:00N 54°00' E 007°18'3210.6 200 / 151004.6 6.4 1.5 5.7
2015-Mar-26 11:00N 54°00' E 008°12'1918.6 240 / 161006.1 6.2-0.1 5.9
2015-Mar-26 10:00N 53°54' E 008°42'4314.3 260 / 141006.4 6.4-0.1 6.0
2015-Mar-26 07:00N 53°36' E 009°48'7 0.3 280 / 151006.9 4.7 1.9 7.2
2015-Mar-25 05:00N 53°30' E 009°54'9 9.3 100 / 71008.9 3.5 1.4 7.4
2015-Mar-25 04:00N 53°36' E 009°42'1616.0 090 / 101008.8 3.4 1.4 7.0
2015-Mar-25 03:00N 53°48' E 009°24'1515.4 110 / 111009.0 3.2 0.5 6.4
2015-Mar-25 02:00N 53°54' E 009°00'2914.4 080 / 151009.1 4.7 1.4 6.2
2015-Mar-25 00:00N 54°00' E 008°12'1515.3 120 / 111008.7 6.2 2.0 5.5
2015-Mar-24 23:00N 53°54' E 007°48'7 7.1 140 / 141008.6 6.4 1.9 5.4
2015-Mar-24 22:00N 53°54' E 007°36'1414.1 130 / 121008.1 6.5 2.4 5.5
2015-Mar-24 21:00N 53°54' E 007°12'19 9.3 130 / 161008.0 6.9 3.0 5.4
2015-Mar-24 19:00N 53°48' E 006°42'1212.2 120 / 91007.9 6.9 4.4 5.7
2015-Mar-24 18:00N 53°42' E 006°24'1110.7 130 / 91007.5 6.2 5.0 5.9
2015-Mar-24 17:00N 53°42' E 006°06'2211.1 110 / 51007.3 6.4 5.0 6.2
2015-Mar-24 15:00N 53°36' E 005°30'9 9.3 130 / 21007.1 7.0 5.5 6.4
2015-Mar-24 14:00N 53°30' E 005°18'25 8.2 080 / 41007.3 7.4 5.4 6.4
2015-Mar-24 11:00N 53°18' E 004°42'9 9.4 340 / 81007.3 7.0 5.0 6.5
2015-Mar-24 10:00N 53°12' E 004°30'7 7.0 210 / 81007.6 9.2 6.2 6.5
2015-Mar-24 09:00N 53°06' E 004°24'1312.5 220 / 91007.6 8.7 6.2 6.7
2015-Mar-24 08:00N 52°54' E 004°18'1414.0 220 / 101007.6 7.4 6.2 6.7
2015-Mar-24 07:00N 52°42' E 004°06'1212.5 210 / 91007.9 6.9 5.9 6.7
2015-Mar-24 06:00N 52°36' E 003°48'1414.0 240 / 131008.1 6.7 5.7 6.7
2015-Mar-24 05:00N 52°24' E 003°36'9 9.5 210 / 91008.3 6.7 5.5 6.9
2015-Mar-24 04:00N 52°18' E 003°24'2612.9 200 / 91008.5 6.7 5.7 6.9
2015-Mar-24 02:00N 52°00' E 002°54'10 9.5 250 / 71009.5 7.0 5.2 6.9
2015-Mar-24 01:00N 51°54' E 002°42'1312.6 250 / 81010.1 7.2 4.9 7.2
2015-Mar-24 00:00N 51°42' E 002°36'10 9.6 250 / 111010.9 7.0 4.5 7.4
2015-Mar-23 23:00N 51°36' E 002°24'7 7.1 250 / 131011.3 6.9 3.7 7.5
2015-Mar-23 22:00N 51°30' E 002°18'10 9.6 240 / 151012.1 6.9 3.7 7.4
2015-Mar-23 21:00N 51°24' E 002°06'1312.6 240 / 161012.9 6.9 3.5 7.5
2015-Mar-23 20:00N 51°12' E 002°00'10 9.6 230 / 171013.5 6.9 2.0 7.4
2015-Mar-23 19:00N 51°06' E 001°48'10 9.6 230 / 151013.7 7.0 1.9 7.7
2015-Mar-23 18:00N 51°00' E 001°36'1414.2 230 / 141014.0 7.5 1.4 7.9
2015-Mar-23 17:00N 50°48' E 001°24'7 7.1 230 / 111014.3 7.9 1.4 7.9
2015-Mar-23 16:00N 50°42' E 001°18'1716.6 260 / 81014.8 10.0 1.4 7.9
2015-Mar-23 15:00N 50°30' E 001°00'8 7.6 280 / 61015.2 9.2 1.2 8.2
2015-Mar-23 14:00N 50°30' E 000°48'1312.9 300 / 21015.8 9.9 1.4 8.4
2015-Mar-23 13:00N 50°24' E 000°30'1111.5 020 / 51016.2 9.2 1.4 8.4
2015-Mar-23 12:00N 50°24' E 000°12'1616.4 030 / 61016.8 8.0 1.9 8.5
2015-Mar-23 11:00N 50°18' W 000°12'1111.5 330 / 81017.5 7.7 0.9 8.7
2015-Mar-23 10:00N 50°18' W 000°30'1616.5 340 / 101017.8 7.5 1.2 8.7
2015-Mar-23 09:00N 50°12' W 000°54'1313.0 320 / 121018.0 7.5 1.2 8.7
2015-Mar-23 08:00N 50°06' W 001°12'1211.5 350 / 81018.5 7.5 1.9 8.9
2015-Mar-23 07:00N 50°06' W 001°30'10 9.8 290 / 31018.8 7.2 2.5 8.7
2015-Mar-23 06:00N 50°00' W 001°42'1211.6 260 / 21019.0 6.7 2.7 8.9
2015-Mar-23 05:00N 50°00' W 002°00'4 3.9 230 / 21019.2 6.5 2.2 9.0
2015-Mar-23 04:00N 50°00' W 002°06'10 9.8 160 / 31019.5 6.7 2.4 9.0
2015-Mar-23 03:00N 49°54' W 002°18'8 7.7 130 / 41019.8 6.7 2.7 9.4
2015-Mar-23 02:00N 49°54' W 002°30'10 9.8 140 / 71020.1 6.9 3.0 9.5
2015-Mar-23 01:00N 49°48' W 002°42'1211.6 130 / 81020.6 7.2 2.5 9.4
2015-Mar-23 00:00N 49°48' W 003°00'10 9.8 110 / 81021.1 7.4 2.2 9.5
2015-Mar-22 23:00N 49°42' W 003°12'1313.1 110 / 121021.4 7.4 1.4 9.5
2015-Mar-22 22:00N 49°36' W 003°30'10 9.8 080 / 141021.8 7.7 1.7 9.5
2015-Mar-22 21:00N 49°30' W 003°42'1313.2 060 / 161021.8 7.7 1.9 9.7
2015-Mar-22 20:00N 49°24' W 004°00'10 9.9 070 / 201022.1 7.7 1.4 9.9
2015-Mar-22 19:00N 49°18' W 004°12'1313.2 060 / 191021.9 7.2-0.010.0
2015-Mar-22 18:00N 49°12' W 004°30'1313.2 060 / 201021.9 6.9-0.010.0
2015-Mar-22 17:00N 49°06' W 004°48'1313.2 040 / 231022.1 6.9 1.210.2
2015-Mar-22 16:00N 49°00' W 005°06'2019.8 040 / 221022.5 7.4 1.410.4
2015-Mar-22 15:00N 48°48' W 005°30'1414.4 050 / 231023.0 8.2 2.910.4
2015-Mar-22 14:00N 48°36' W 005°42'1312.6 050 / 211023.5 8.4 3.010.4
2015-Mar-22 13:00N 48°24' W 005°36'1414.4 040 / 221023.8 8.4 1.910.4
2015-Mar-22 12:00N 48°12' W 005°24'2019.7 040 / 201024.0 8.9 2.210.4
2015-Mar-22 11:00N 47°54' W 005°12'1312.7 040 / 191024.2 8.9 1.210.4
2015-Mar-22 10:00N 47°42' W 005°06'1414.5 050 / 211024.0 8.7 1.910.9
2015-Mar-22 09:00N 47°30' W 004°54'1818.5 040 / 231023.5 8.2 1.410.9
2015-Mar-22 08:00N 47°12' W 004°48'1514.5 050 / 291022.7 8.4 1.710.9
2015-Mar-22 07:00N 47°00' W 004°36'1514.5 050 / 311021.9 8.4 2.710.9
2015-Mar-22 06:00N 46°48' W 004°24'1312.7 050 / 301021.5 8.4 2.411.0
2015-Mar-22 05:00N 46°36' W 004°18'1514.6 050 / 291020.8 8.2 2.711.2
2015-Mar-22 04:00N 46°24' W 004°06'1514.6 060 / 341020.3 8.5 3.011.4
2015-Mar-22 03:00N 46°12' W 003°54'1312.7 060 / 341020.2 8.7 3.711.5
2015-Mar-22 02:00N 46°00' W 003°48'1514.6 050 / 331019.7 8.9 4.511.7
2015-Mar-22 01:00N 45°48' W 003°36'1818.5 050 / 351019.4 9.4 4.911.7
2015-Mar-22 00:00N 45°30' W 003°30'1514.7 060 / 301019.6 10.7 6.411.7
2015-Mar-21 23:00N 45°18' W 003°18'1312.7 050 / 331019.0 10.7 5.911.7
2015-Mar-21 22:00N 45°06' W 003°12'2713.6 060 / 391018.1 11.2 5.011.7
2015-Mar-21 20:00N 44°42' W 002°54'1312.7 050 / 251016.7 11.9 8.912.0
2015-Mar-21 19:00N 44°30' W 002°48'1514.7 060 / 271015.7 11.7 9.712.0
2015-Mar-21 18:00N 44°18' W 002°36'1514.8 030 / 291013.7 11.9 9.912.0
2015-Mar-21 17:00N 44°06' W 002°24'1312.8 010 / 141013.5 11.710.411.9
2015-Mar-21 16:00N 43°54' W 002°18'3316.4 1013.6 10.7 8.711.7
2015-Mar-21 14:00N 43°24' W 002°00'   300 / 51014.3 9.2 7.211.9
Track history (hours):
 
Tides and Currents Weather Stations Pressure Air Temp Water Temp Dewpoint Dewpoint Depression Visibility Wind Speed Wind Dir Waves Ship Positions

Callsign BATFR54 (name unknown)

Last reported at 2015-Mar-31 14:00 UTC. Time now 2015-Mar-31 15:29 UTC.
Position N 53°42' W 004°12'.

Wind from 280 at 40 knots

Barometer 1009.8 mb
Air temperature 7.4 ° C
Dewpoint -0.3 ° C
Water temperature 7.2 ° C

Date/timePositionNaut miles runAvg speedWind from/ knotsBaromVisibWave heightAir tempDewpointWater temp
2015-Mar-31 14:00N 53°42' W 004°12'7 7.0 280 / 401009.8 7.4-0.3 7.2
2015-Mar-31 13:00N 53°36' W 004°06'7 7.0 280 / 461008.2 7.4 0.7 6.9
2015-Mar-31 12:00N 53°30' W 004°00'4 3.6 270 / 341007.6 6.7 2.2 6.9
2015-Mar-31 11:00N 53°30' W 004°06'18 8.9 280 / 331009.2 6.2 2.2 7.0
2015-Mar-31 09:00N 53°30' W 004°36'16 8.0 280 / 341006.6 7.4 2.5 6.9
2015-Mar-31 07:00N 53°18' W 004°54'19 9.7 250 / 171005.1 7.4 2.7 7.4
2015-Mar-31 05:00N 53°00' W 005°06'7 7.0 280 / 211001.4 8.4 4.2 7.9
2015-Mar-31 04:00N 52°54' W 005°12'1212.0 250 / 231000.8 8.9 5.2 7.9
2015-Mar-31 03:00N 52°42' W 005°12'7 7.0 250 / 321000.1 8.9 4.5 7.9
2015-Mar-31 02:00N 52°36' W 005°18'7 7.0 260 / 31999.8 9.7 4.0 8.0
2015-Mar-31 01:00N 52°30' W 005°24'7 7.0 260 / 27999.4 9.9 4.2 8.0
2015-Mar-31 00:00N 52°24' W 005°30'6 6.0 260 / 22998.4 10.2 6.0 8.0
2015-Mar-30 23:00N 52°18' W 005°30'1312.6 240 / 41997.5 10.5 7.7 8.2
2015-Mar-30 22:00N 52°06' W 005°36'7 7.0 240 / 43998.5 10.2 8.9 8.2
2015-Mar-30 21:00N 52°00' W 005°42'6 6.0 240 / 42999.9 10.2 9.0 8.2
2015-Mar-30 20:00N 51°54' W 005°42'18 9.2 240 / 391001.7 10.2 9.2 8.2
2015-Mar-30 18:00N 51°36' W 005°48'7 7.1 250 / 431002.3 10.5 9.4 8.4
2015-Mar-30 17:00N 51°30' W 005°42'15 7.5 240 / 411004.1 10.4 9.5 8.2
2015-Mar-30 15:00N 51°30' W 005°18'7 7.5 200 / 281005.9 8.9 8.4 8.2
2015-Mar-30 14:00N 51°30' W 005°06'7 7.5 210 / 241008.7 8.7 7.4 8.2
2015-Mar-30 13:00N 51°30' W 004°54'16 8.1 220 / 211011.2 8.7 6.5 7.9
2015-Mar-30 11:00N 51°24' W 004°30'7 7.5 240 / 171013.2 8.9 4.7 7.9
2015-Mar-30 10:00N 51°24' W 004°18'7 7.5 260 / 161013.6 8.7 4.2 7.7
2015-Mar-30 09:00N 51°24' W 004°06'1111.2 270 / 191013.2 8.5 3.9 7.9
2015-Mar-30 08:00N 51°24' W 003°48'7 7.5 280 / 241012.0 8.4 2.4 7.7
2015-Mar-30 07:00N 51°24' W 003°36'2211.2 290 / 321011.7 8.2 2.7 7.7
2015-Mar-30 05:00N 51°24' W 003°00'10 1.6 270 / 191008.0 7.4 2.9 7.7
2015-Mar-29 23:00N 51°30' W 002°48'1616.1 260 / 171004.1 8.7 5.4 8.0
2015-Mar-29 22:00N 51°24' W 003°12'2613.1 280 / 241003.4 8.7 6.7 7.7
2015-Mar-29 20:00N 51°24' W 003°54'1111.2 250 / 221003.6 8.9 6.9 7.9
2015-Mar-29 19:00N 51°24' W 004°12'34 5.7 260 / 191003.4 9.2 6.4 7.9
2015-Mar-29 13:00N 51°18' W 003°18'10 9.6 260 / 51995.7 10.7 8.2 7.7
2015-Mar-29 12:00N 51°24' W 003°06'10 9.6 250 / 50996.0 11.0 8.4 7.7
2015-Mar-29 11:00N 51°30' W 002°54'2914.4 240 / 45996.9 10.4 8.7 7.7
2015-Mar-29 09:00N 51°18' W 003°36'1918.8 240 / 39999.8 10.4 8.9 7.7
2015-Mar-29 08:00N 51°18' W 004°06'0 0.0 240 / 351001.2 9.9 8.9 7.9
2015-Mar-29 07:00N 51°18' W 004°06'0 0.0 240 / 451000.7 10.7 8.7 7.9
2015-Mar-29 06:00N 51°18' W 004°06'1111.3 240 / 321003.3 9.7 9.0 7.9
2015-Mar-29 05:00N 51°18' W 004°24'7 7.1 240 / 361003.0 9.9 9.0 8.0
2015-Mar-29 04:00N 51°12' W 004°30'1616.5 240 / 301004.8 9.9 9.2 8.4
2015-Mar-29 03:00N 51°00' W 004°48'1312.8 240 / 271006.5 9.9 9.4 8.5
2015-Mar-29 02:00N 50°54' W 005°06'3115.3 250 / 261008.6 9.9 9.2 9.2
2015-Mar-29 00:00N 50°30' W 005°36'10 9.7 250 / 321010.8 10.2 8.9 9.2
2015-Mar-28 23:00N 50°24' W 005°48'1312.6 240 / 301012.1 10.2 8.9 9.4
2015-Mar-28 22:00N 50°12' W 005°54'1312.6 230 / 231013.0 10.4 8.4 9.4
2015-Mar-28 21:00N 50°00' W 005°48'1211.6 250 / 301013.2 10.4 8.2 9.4
2015-Mar-28 20:00N 50°00' W 005°30'10 9.8 260 / 301013.7 10.4 8.4 9.5
2015-Mar-28 19:00N 49°54' W 005°18'1211.6 260 / 321013.6 10.7 8.4 9.4
2015-Mar-28 18:00N 49°54' W 005°00'19 9.7 260 / 311013.3 10.9 8.9 9.5
2015-Mar-28 16:00N 49°54' W 004°30'54 7.8 250 / 341012.5 11.0 9.5 9.5
2015-Mar-28 09:00N 50°00' W 003°06'8 7.7 230 / 361015.8 10.4 9.2 8.9
2015-Mar-28 08:00N 50°00' W 002°54'1313.0 240 / 301016.4 10.2 9.5 9.0
2015-Mar-28 07:00N 50°06' W 002°36'1211.5 240 / 261016.9 10.0 9.7 8.9
2015-Mar-28 06:00N 50°06' W 002°18'1211.5 240 / 301016.9 9.9 9.5 9.0
2015-Mar-28 05:00N 50°06' W 002°00'10 9.8 250 / 251017.5 9.9 9.4 9.0
2015-Mar-28 04:00N 50°12' W 001°48'35 8.8 250 / 281017.3 9.7 9.5 9.0
2015-Mar-28 00:00N 50°18' W 000°54'1313.0 160 / 131019.7 8.5 7.9 8.4
2015-Mar-27 23:00N 50°24' W 000°36'1111.5 150 / 121020.8 8.4 7.4 8.4
2015-Mar-27 22:00N 50°24' W 000°18'1312.9 200 / 151021.5 8.9 6.4 8.7
2015-Mar-27 21:00N 50°30' E 000°00'1111.4 190 / 141021.8 8.7 6.4 8.7
2015-Mar-27 20:00N 50°30' E 000°18'2311.3 210 / 141021.9 8.7 6.9 8.4
2015-Mar-27 18:00N 50°42' E 000°48'1312.9 220 / 181021.6 8.5 6.5 8.2
2015-Mar-27 17:00N 50°48' E 001°06'10 9.7 210 / 191021.1 8.5 6.2 8.0
2015-Mar-27 16:00N 50°54' E 001°18'2613.0 220 / 181021.4 8.4 5.2 8.0
2015-Mar-27 14:00N 51°12' E 001°48'1414.2 190 / 71021.6 8.4 2.4 7.9
2015-Mar-27 13:00N 51°24' E 002°00'1414.1 260 / 121021.2 7.4 2.4 7.7
2015-Mar-27 12:00N 51°36' E 002°12'1414.1 250 / 151019.8 7.0 2.4 7.7
2015-Mar-27 11:00N 51°48' E 002°24'10 9.5 280 / 171019.5 7.2 1.9 7.5
2015-Mar-27 10:00N 51°54' E 002°36'2311.6 290 / 211018.5 6.9 1.9 7.4
2015-Mar-27 08:00N 52°12' E 003°00'1414.1 290 / 281015.9 6.0 2.4 6.9
2015-Mar-27 07:00N 52°24' E 003°12'7 7.0 290 / 271014.8 6.7 3.2 6.9
2015-Mar-27 06:00N 52°30' E 003°18'9 9.4 300 / 321013.0 6.7 2.4 7.0
2015-Mar-27 05:00N 52°36' E 003°30'1414.0 300 / 331011.3 6.9 3.7 7.0
2015-Mar-27 04:00N 52°48' E 003°42'48 9.7 290 / 331009.4 6.7 3.7 6.9
2015-Mar-26 23:00N 53°24' E 004°36'9 9.3 270 / 291003.4 6.7 4.2 6.5
2015-Mar-26 22:00N 53°30' E 004°48'1212.3 270 / 311002.5 6.4 3.9 6.4
2015-Mar-26 21:00N 53°36' E 005°06'7 7.1 270 / 271001.8 6.4 4.5 6.4
2015-Mar-26 20:00N 53°36' E 005°18'1212.2 220 / 211001.4 6.7 5.2 6.4
2015-Mar-26 19:00N 53°42' E 005°36'1515.4 170 / 251000.5 5.0 3.7 6.4
2015-Mar-26 18:00N 53°48' E 006°00'1110.6 170 / 261001.4 4.7 2.7 6.2
2015-Mar-26 17:00N 53°48' E 006°18'1515.4 130 / 151002.3 4.7 2.0 6.0
2015-Mar-26 16:00N 53°54' E 006°42'1110.6 190 / 231003.4 4.7 1.7 5.9
2015-Mar-26 15:00N 53°54' E 007°00'1212.2 170 / 141003.7 6.4 2.0 5.7
2015-Mar-26 14:00N 54°00' E 007°18'3210.6 200 / 151004.6 6.4 1.5 5.7
2015-Mar-26 11:00N 54°00' E 008°12'1918.6 240 / 161006.1 6.2-0.1 5.9
2015-Mar-26 10:00N 53°54' E 008°42'4314.3 260 / 141006.4 6.4-0.1 6.0
2015-Mar-26 07:00N 53°36' E 009°48'7 0.3 280 / 151006.9 4.7 1.9 7.2
2015-Mar-25 05:00N 53°30' E 009°54'9 9.3 100 / 71008.9 3.5 1.4 7.4
2015-Mar-25 04:00N 53°36' E 009°42'1616.0 090 / 101008.8 3.4 1.4 7.0
2015-Mar-25 03:00N 53°48' E 009°24'1515.4 110 / 111009.0 3.2 0.5 6.4
2015-Mar-25 02:00N 53°54' E 009°00'2914.4 080 / 151009.1 4.7 1.4 6.2
2015-Mar-25 00:00N 54°00' E 008°12'1515.3 120 / 111008.7 6.2 2.0 5.5
2015-Mar-24 23:00N 53°54' E 007°48'7 7.1 140 / 141008.6 6.4 1.9 5.4
2015-Mar-24 22:00N 53°54' E 007°36'1414.1 130 / 121008.1 6.5 2.4 5.5
2015-Mar-24 21:00N 53°54' E 007°12'19 9.3 130 / 161008.0 6.9 3.0 5.4
2015-Mar-24 19:00N 53°48' E 006°42'1212.2 120 / 91007.9 6.9 4.4 5.7
2015-Mar-24 18:00N 53°42' E 006°24'1110.7 130 / 91007.5 6.2 5.0 5.9
2015-Mar-24 17:00N 53°42' E 006°06'2211.1 110 / 51007.3 6.4 5.0 6.2
2015-Mar-24 15:00N 53°36' E 005°30'9 9.3 130 / 21007.1 7.0 5.5 6.4
2015-Mar-24 14:00N 53°30' E 005°18'25 8.2 080 / 41007.3 7.4 5.4 6.4
2015-Mar-24 11:00N 53°18' E 004°42'9 9.4 340 / 81007.3 7.0 5.0 6.5
2015-Mar-24 10:00N 53°12' E 004°30'7 7.0 210 / 81007.6 9.2 6.2 6.5
2015-Mar-24 09:00N 53°06' E 004°24'1312.5 220 / 91007.6 8.7 6.2 6.7
2015-Mar-24 08:00N 52°54' E 004°18'1414.0 220 / 101007.6 7.4 6.2 6.7
2015-Mar-24 07:00N 52°42' E 004°06'1212.5 210 / 91007.9 6.9 5.9 6.7
2015-Mar-24 06:00N 52°36' E 003°48'1414.0 240 / 131008.1 6.7 5.7 6.7
2015-Mar-24 05:00N 52°24' E 003°36'9 9.5 210 / 91008.3 6.7 5.5 6.9
2015-Mar-24 04:00N 52°18' E 003°24'2612.9 200 / 91008.5 6.7 5.7 6.9
2015-Mar-24 02:00N 52°00' E 002°54'10 9.5 250 / 71009.5 7.0 5.2 6.9
2015-Mar-24 01:00N 51°54' E 002°42'1312.6 250 / 81010.1 7.2 4.9 7.2
2015-Mar-24 00:00N 51°42' E 002°36'10 9.6 250 / 111010.9 7.0 4.5 7.4
2015-Mar-23 23:00N 51°36' E 002°24'7 7.1 250 / 131011.3 6.9 3.7 7.5
2015-Mar-23 22:00N 51°30' E 002°18'10 9.6 240 / 151012.1 6.9 3.7 7.4
2015-Mar-23 21:00N 51°24' E 002°06'1312.6 240 / 161012.9 6.9 3.5 7.5
2015-Mar-23 20:00N 51°12' E 002°00'10 9.6 230 / 171013.5 6.9 2.0 7.4
2015-Mar-23 19:00N 51°06' E 001°48'10 9.6 230 / 151013.7 7.0 1.9 7.7
2015-Mar-23 18:00N 51°00' E 001°36'1414.2 230 / 141014.0 7.5 1.4 7.9
2015-Mar-23 17:00N 50°48' E 001°24'7 7.1 230 / 111014.3 7.9 1.4 7.9
2015-Mar-23 16:00N 50°42' E 001°18'1716.6 260 / 81014.8 10.0 1.4 7.9
2015-Mar-23 15:00N 50°30' E 001°00'8 7.6 280 / 61015.2 9.2 1.2 8.2
2015-Mar-23 14:00N 50°30' E 000°48'1312.9 300 / 21015.8 9.9 1.4 8.4
2015-Mar-23 13:00N 50°24' E 000°30'1111.5 020 / 51016.2 9.2 1.4 8.4
2015-Mar-23 12:00N 50°24' E 000°12'1616.4 030 / 61016.8 8.0 1.9 8.5
2015-Mar-23 11:00N 50°18' W 000°12'1111.5 330 / 81017.5 7.7 0.9 8.7
2015-Mar-23 10:00N 50°18' W 000°30'1616.5 340 / 101017.8 7.5 1.2 8.7
2015-Mar-23 09:00N 50°12' W 000°54'1313.0 320 / 121018.0 7.5 1.2 8.7
2015-Mar-23 08:00N 50°06' W 001°12'1211.5 350 / 81018.5 7.5 1.9 8.9
2015-Mar-23 07:00N 50°06' W 001°30'10 9.8 290 / 31018.8 7.2 2.5 8.7
2015-Mar-23 06:00N 50°00' W 001°42'1211.6 260 / 21019.0 6.7 2.7 8.9
2015-Mar-23 05:00N 50°00' W 002°00'4 3.9 230 / 21019.2 6.5 2.2 9.0
2015-Mar-23 04:00N 50°00' W 002°06'10 9.8 160 / 31019.5 6.7 2.4 9.0
2015-Mar-23 03:00N 49°54' W 002°18'8 7.7 130 / 41019.8 6.7 2.7 9.4
2015-Mar-23 02:00N 49°54' W 002°30'10 9.8 140 / 71020.1 6.9 3.0 9.5
2015-Mar-23 01:00N 49°48' W 002°42'1211.6 130 / 81020.6 7.2 2.5 9.4
2015-Mar-23 00:00N 49°48' W 003°00'10 9.8 110 / 81021.1 7.4 2.2 9.5
2015-Mar-22 23:00N 49°42' W 003°12'1313.1 110 / 121021.4 7.4 1.4 9.5
2015-Mar-22 22:00N 49°36' W 003°30'10 9.8 080 / 141021.8 7.7 1.7 9.5
2015-Mar-22 21:00N 49°30' W 003°42'1313.2 060 / 161021.8 7.7 1.9 9.7
2015-Mar-22 20:00N 49°24' W 004°00'10 9.9 070 / 201022.1 7.7 1.4 9.9
2015-Mar-22 19:00N 49°18' W 004°12'1313.2 060 / 191021.9 7.2-0.010.0
2015-Mar-22 18:00N 49°12' W 004°30'1313.2 060 / 201021.9 6.9-0.010.0
2015-Mar-22 17:00N 49°06' W 004°48'1313.2 040 / 231022.1 6.9 1.210.2
2015-Mar-22 16:00N 49°00' W 005°06'2019.8 040 / 221022.5 7.4 1.410.4
2015-Mar-22 15:00N 48°48' W 005°30'1414.4 050 / 231023.0 8.2 2.910.4
2015-Mar-22 14:00N 48°36' W 005°42'1312.6 050 / 211023.5 8.4 3.010.4
2015-Mar-22 13:00N 48°24' W 005°36'1414.4 040 / 221023.8 8.4 1.910.4
2015-Mar-22 12:00N 48°12' W 005°24'2019.7 040 / 201024.0 8.9 2.210.4
2015-Mar-22 11:00N 47°54' W 005°12'1312.7 040 / 191024.2 8.9 1.210.4
2015-Mar-22 10:00N 47°42' W 005°06'1414.5 050 / 211024.0 8.7 1.910.9
2015-Mar-22 09:00N 47°30' W 004°54'1818.5 040 / 231023.5 8.2 1.410.9
2015-Mar-22 08:00N 47°12' W 004°48'1514.5 050 / 291022.7 8.4 1.710.9
2015-Mar-22 07:00N 47°00' W 004°36'1514.5 050 / 311021.9 8.4 2.710.9
2015-Mar-22 06:00N 46°48' W 004°24'1312.7 050 / 301021.5 8.4 2.411.0
2015-Mar-22 05:00N 46°36' W 004°18'1514.6 050 / 291020.8 8.2 2.711.2
2015-Mar-22 04:00N 46°24' W 004°06'1514.6 060 / 341020.3 8.5 3.011.4
2015-Mar-22 03:00N 46°12' W 003°54'1312.7 060 / 341020.2 8.7 3.711.5
2015-Mar-22 02:00N 46°00' W 003°48'1514.6 050 / 331019.7 8.9 4.511.7
2015-Mar-22 01:00N 45°48' W 003°36'1818.5 050 / 351019.4 9.4 4.911.7
2015-Mar-22 00:00N 45°30' W 003°30'1514.7 060 / 301019.6 10.7 6.411.7
2015-Mar-21 23:00N 45°18' W 003°18'1312.7 050 / 331019.0 10.7 5.911.7
2015-Mar-21 22:00N 45°06' W 003°12'2713.6 060 / 391018.1 11.2 5.011.7
2015-Mar-21 20:00N 44°42' W 002°54'1312.7 050 / 251016.7 11.9 8.912.0
2015-Mar-21 19:00N 44°30' W 002°48'1514.7 060 / 271015.7 11.7 9.712.0
2015-Mar-21 18:00N 44°18' W 002°36'1514.8 030 / 291013.7 11.9 9.912.0
2015-Mar-21 17:00N 44°06' W 002°24'1312.8 010 / 141013.5 11.710.411.9
2015-Mar-21 16:00N 43°54' W 002°18'3316.4 1013.6 10.7 8.711.7
2015-Mar-21 14:00N 43°24' W 002°00'   300 / 51014.3 9.2 7.211.9

Dump ship's entire track history